Terminal Aerodrome Forecast
Issued by NWS

Home | Current Version | Previous Version | Text Only | Print | Product List | Glossary On
Versions: 1 2 3 4 5 6 7 8 9 10 11 12 13 14 15 16 17
000
FTUS41 KBGM 271731
TAFITH
TAF
KITH 271731Z 2718/2818 VRB05KT P6SM SCT045 BKN250
     FM280000 12004KT P6SM SCT120
     FM281400 19008KT P6SM BKN060 PROB30 2816/2818 -SHRA OVC040=

USA.gov is the U.S. government's official web portal to all federal, state and local government web resources and services.